sensor_id;sensor_type;location;lat;lon;timestamp;pressure;altitude;pressure_sealevel;temperature;humidity
13011;BME280;6786;57.632;11.962;2023-03-22T00:02:27;99757.47;;;18.89;42.19
13011;BME280;6786;57.632;11.962;2023-03-22T00:04:56;99760.00;;;18.90;42.28
13011;BME280;6786;57.632;11.962;2023-03-22T00:07:24;99728.28;;;18.78;42.19
13011;BME280;6786;57.632;11.962;2023-03-22T00:09:53;99736.06;;;18.89;42.23
13011;BME280;6786;57.632;11.962;2023-03-22T00:12:22;99741.25;;;18.90;42.29
13011;BME280;6786;57.632;11.962;2023-03-22T00:14:50;99728.72;;;18.91;42.35
13011;BME280;6786;57.632;11.962;2023-03-22T00:17:19;99739.41;;;18.91;42.29
13011;BME280;6786;57.632;11.962;2023-03-22T00:19:50;99734.06;;;18.91;42.20
13011;BME280;6786;57.632;11.962;2023-03-22T00:22:24;99720.84;;;18.89;42.29
13011;BME280;6786;57.632;11.962;2023-03-22T00:24:52;99729.03;;;18.88;42.32
13011;BME280;6786;57.632;11.962;2023-03-22T00:27:21;99721.66;;;18.90;42.24
13011;BME280;6786;57.632;11.962;2023-03-22T00:29:50;99716.31;;;18.90;42.26
13011;BME280;6786;57.632;11.962;2023-03-22T00:32:19;99721.66;;;18.90;42.33
13011;BME280;6786;57.632;11.962;2023-03-22T00:34:47;99720.00;;;18.89;42.26
13011;BME280;6786;57.632;11.962;2023-03-22T00:37:16;99723.34;;;18.91;42.32
13011;BME280;6786;57.632;11.962;2023-03-22T00:39:45;99705.59;;;18.90;42.43
13011;BME280;6786;57.632;11.962;2023-03-22T00:42:14;99710.13;;;18.89;42.38
13011;BME280;6786;57.632;11.962;2023-03-22T00:44:42;99711.81;;;18.90;42.33
13011;BME280;6786;57.632;11.962;2023-03-22T00:47:10;99702.75;;;18.91;42.30
13011;BME280;6786;57.632;11.962;2023-03-22T00:49:39;99712.66;;;18.91;42.33
13011;BME280;6786;57.632;11.962;2023-03-22T00:52:07;99691.53;;;18.88;42.32
13011;BME280;6786;57.632;11.962;2023-03-22T00:54:37;99668.41;;;18.79;42.22
13011;BME280;6786;57.632;11.962;2023-03-22T00:57:05;99696.59;;;18.91;42.22
13011;BME280;6786;57.632;11.962;2023-03-22T00:59:34;99686.50;;;18.85;42.36
13011;BME280;6786;57.632;11.962;2023-03-22T01:02:04;99692.06;;;18.91;42.29
13011;BME280;6786;57.632;11.962;2023-03-22T01:04:32;99680.53;;;18.91;42.35
13011;BME280;6786;57.632;11.962;2023-03-22T01:07:01;99691.22;;;18.91;42.30
13011;BME280;6786;57.632;11.962;2023-03-22T01:09:33;99689.53;;;18.90;42.37
13011;BME280;6786;57.632;11.962;2023-03-22T01:12:03;99678.81;;;18.90;42.45
13011;BME280;6786;57.632;11.962;2023-03-22T01:14:31;99675.66;;;18.86;42.42
13011;BME280;6786;57.632;11.962;2023-03-22T01:16:59;99673.78;;;18.87;42.41
13011;BME280;6786;57.632;11.962;2023-03-22T01:19:28;99680.53;;;18.91;42.45
13011;BME280;6786;57.632;11.962;2023-03-22T01:21:56;99680.53;;;18.91;42.29
13011;BME280;6786;57.632;11.962;2023-03-22T01:24:24;99680.53;;;18.91;42.34
13011;BME280;6786;57.632;11.962;2023-03-22T01:26:53;99675.97;;;18.91;42.42
13011;BME280;6786;57.632;11.962;2023-03-22T01:29:23;99675.16;;;18.91;42.44
13011;BME280;6786;57.632;11.962;2023-03-22T01:31:52;99654.88;;;18.88;42.35
13011;BME280;6786;57.632;11.962;2023-03-22T01:34:20;99666.13;;;18.92;42.40
13011;BME280;6786;57.632;11.962;2023-03-22T01:36:49;99650.00;;;18.84;42.37
13011;BME280;6786;57.632;11.962;2023-03-22T01:39:17;99654.56;;;18.91;42.40
13011;BME280;6786;57.632;11.962;2023-03-22T01:41:45;99647.34;;;18.84;42.25
13011;BME280;6786;57.632;11.962;2023-03-22T01:44:15;99637.69;;;18.91;42.38
13011;BME280;6786;57.632;11.962;2023-03-22T01:46:46;99637.69;;;18.91;42.41
13011;BME280;6786;57.632;11.962;2023-03-22T01:49:17;99626.97;;;18.91;42.41
13011;BME280;6786;57.632;11.962;2023-03-22T01:51:48;99616.25;;;18.91;42.42
13011;BME280;6786;57.632;11.962;2023-03-22T01:54:23;99628.66;;;18.92;42.42
13011;BME280;6786;57.632;11.962;2023-03-22T01:56:54;99623.44;;;18.90;42.35
13011;BME280;6786;57.632;11.962;2023-03-22T01:59:23;99600.97;;;18.75;42.28
13011;BME280;6786;57.632;11.962;2023-03-22T02:01:53;99609.22;;;18.90;42.37
13011;BME280;6786;57.632;11.962;2023-03-22T02:04:22;99580.06;;;18.79;42.47
13011;BME280;6786;57.632;11.962;2023-03-22T02:07:01;99605.56;;;18.91;42.45
13011;BME280;6786;57.632;11.962;2023-03-22T02:09:36;99599.50;;;18.89;42.38
13011;BME280;6786;57.632;11.962;2023-03-22T02:12:17;99524.72;;;18.46;42.46
13011;BME280;6786;57.632;11.962;2023-03-22T02:14:59;99607.22;;;18.92;42.45
13011;BME280;6786;57.632;11.962;2023-03-22T02:17:41;99608.25;;;18.91;42.48
13011;BME280;6786;57.632;11.962;2023-03-22T02:20:48;99603.03;;;18.89;42.65
13011;BME280;6786;57.632;11.962;2023-03-22T02:29:44;99574.34;;;18.66;42.37
13011;BME280;6786;57.632;11.962;2023-03-22T02:32:41;99605.88;;;18.88;42.58
13011;BME280;6786;57.632;11.962;2023-03-22T02:38:24;99593.78;;;18.84;42.52
13011;BME280;6786;57.632;11.962;2023-03-22T02:41:10;99616.59;;;18.88;42.44
13011;BME280;6786;57.632;11.962;2023-03-22T02:43:43;99609.53;;;18.87;42.34
13011;BME280;6786;57.632;11.962;2023-03-22T02:46:20;99593.31;;;18.80;42.62
13011;BME280;6786;57.632;11.962;2023-03-22T02:48:53;99595.81;;;18.82;42.45
13011;BME280;6786;57.632;11.962;2023-03-22T02:51:29;99604.19;;;18.87;42.48
13011;BME280;6786;57.632;11.962;2023-03-22T02:54:02;99605.50;;;18.83;42.45
13011;BME280;6786;57.632;11.962;2023-03-22T02:56:37;99588.59;;;18.74;42.55
13011;BME280;6786;57.632;11.962;2023-03-22T02:59:09;99595.19;;;18.88;42.75
13011;BME280;6786;57.632;11.962;2023-03-22T03:01:42;99589.81;;;18.88;42.41
13011;BME280;6786;57.632;11.962;2023-03-22T03:04:15;99584.31;;;18.89;42.41
13011;BME280;6786;57.632;11.962;2023-03-22T03:06:46;99582.44;;;18.90;42.49
13011;BME280;6786;57.632;11.962;2023-03-22T03:09:17;99578.41;;;18.86;42.39
13011;BME280;6786;57.632;11.962;2023-03-22T03:11:49;99589.50;;;18.91;42.46
13011;BME280;6786;57.632;11.962;2023-03-22T03:14:20;99570.72;;;18.83;42.54
13011;BME280;6786;57.632;11.962;2023-03-22T03:17:01;99562.69;;;18.83;42.57
13011;BME280;6786;57.632;11.962;2023-03-22T03:19:36;99528.16;;;18.64;42.54
13011;BME280;6786;57.632;11.962;2023-03-22T03:22:22;99568.06;;;18.91;42.50
13011;BME280;6786;57.632;11.962;2023-03-22T03:24:59;99546.94;;;18.80;42.44
13011;BME280;6786;57.632;11.962;2023-03-22T03:27:37;99500.50;;;18.47;42.46
13011;BME280;6786;57.632;11.962;2023-03-22T03:30:10;99566.38;;;18.90;42.51
13011;BME280;6786;57.632;11.962;2023-03-22T03:32:43;99539.34;;;18.67;42.42
13011;BME280;6786;57.632;11.962;2023-03-22T03:35:17;99527.50;;;18.70;42.57
13011;BME280;6786;57.632;11.962;2023-03-22T03:37:52;99550.31;;;18.90;42.50
13011;BME280;6786;57.632;11.962;2023-03-22T03:40:25;99559.19;;;18.90;42.57
13011;BME280;6786;57.632;11.962;2023-03-22T03:43:01;99549.34;;;18.91;42.54
13011;BME280;6786;57.632;11.962;2023-03-22T03:45:31;99555.66;;;18.90;42.45
13011;BME280;6786;57.632;11.962;2023-03-22T03:48:03;99544.31;;;18.88;42.62
13011;BME280;6786;57.632;11.962;2023-03-22T03:50:32;99547.47;;;18.91;42.61
13011;BME280;6786;57.632;11.962;2023-03-22T03:53:01;99519.50;;;18.78;42.60
13011;BME280;6786;57.632;11.962;2023-03-22T03:55:30;99535.94;;;18.91;42.60
13011;BME280;6786;57.632;11.962;2023-03-22T03:58:00;99528.91;;;18.90;42.51
13011;BME280;6786;57.632;11.962;2023-03-22T04:00:29;99523.53;;;18.90;42.55
13011;BME280;6786;57.632;11.962;2023-03-22T04:02:57;99534.25;;;18.90;42.50
13011;BME280;6786;57.632;11.962;2023-03-22T04:05:26;99530.59;;;18.91;42.53
13011;BME280;6786;57.632;11.962;2023-03-22T04:07:54;99528.91;;;18.90;42.53
13011;BME280;6786;57.632;11.962;2023-03-22T04:10:22;99530.59;;;18.91;42.58
13011;BME280;6786;57.632;11.962;2023-03-22T04:12:51;99519.88;;;18.91;42.67
13011;BME280;6786;57.632;11.962;2023-03-22T04:15:21;99532.25;;;18.92;42.70
13011;BME280;6786;57.632;11.962;2023-03-22T04:17:50;99514.53;;;18.91;42.60
13011;BME280;6786;57.632;11.962;2023-03-22T04:20:20;99510.84;;;18.92;42.62
13011;BME280;6786;57.632;11.962;2023-03-22T04:22:48;99479.00;;;18.73;42.61
13011;BME280;6786;57.632;11.962;2023-03-22T04:25:18;99499.13;;;18.85;42.62
13011;BME280;6786;57.632;11.962;2023-03-22T04:27:48;99470.31;;;18.71;42.51
13011;BME280;6786;57.632;11.962;2023-03-22T04:30:17;99492.06;;;18.84;42.58
13011;BME280;6786;57.632;11.962;2023-03-22T04:32:47;99486.72;;;18.84;42.55
13011;BME280;6786;57.632;11.962;2023-03-22T04:35:16;99500.13;;;18.92;42.64
13011;BME280;6786;57.632;11.962;2023-03-22T04:37:44;99505.50;;;18.92;42.52
13011;BME280;6786;57.632;11.962;2023-03-22T04:40:14;99494.78;;;18.92;42.59
13011;BME280;6786;57.632;11.962;2023-03-22T04:42:43;99488.06;;;18.80;42.61
13011;BME280;6786;57.632;11.962;2023-03-22T04:45:12;99493.13;;;18.91;42.69
13011;BME280;6786;57.632;11.962;2023-03-22T04:47:41;99500.47;;;18.89;42.85
13011;BME280;6786;57.632;11.962;2023-03-22T04:50:11;99496.44;;;18.93;42.66
13011;BME280;6786;57.632;11.962;2023-03-22T04:52:39;99500.13;;;18.92;42.63
13011;BME280;6786;57.632;11.962;2023-03-22T04:55:07;99498.47;;;18.91;42.53
13011;BME280;6786;57.632;11.962;2023-03-22T04:57:36;99501.00;;;18.92;42.60
13011;BME280;6786;57.632;11.962;2023-03-22T05:00:05;99501.81;;;18.93;42.61
13011;BME280;6786;57.632;11.962;2023-03-22T05:02:35;99500.13;;;18.92;42.66
13011;BME280;6786;57.632;11.962;2023-03-22T05:05:07;99493.13;;;18.91;42.70
13011;BME280;6786;57.632;11.962;2023-03-22T05:07:36;99500.13;;;18.92;42.62
13011;BME280;6786;57.632;11.962;2023-03-22T05:10:05;99502.81;;;18.92;42.64
13011;BME280;6786;57.632;11.962;2023-03-22T05:12:34;99492.09;;;18.92;42.76
13011;BME280;6786;57.632;11.962;2023-03-22T05:15:03;99506.34;;;18.92;42.53
13011;BME280;6786;57.632;11.962;2023-03-22T05:17:32;99484.06;;;18.92;42.62
13011;BME280;6786;57.632;11.962;2023-03-22T05:20:01;99489.44;;;18.92;42.61
13011;BME280;6786;57.632;11.962;2023-03-22T05:22:37;99491.41;;;18.90;42.63
13011;BME280;6786;57.632;11.962;2023-03-22T05:25:08;99270.34;;;17.57;42.77
13011;BME280;6786;57.632;11.962;2023-03-22T05:27:37;99475.03;;;18.93;42.72
13011;BME280;6786;57.632;11.962;2023-03-22T05:30:08;99471.38;;;18.94;42.68
13011;BME280;6786;57.632;11.962;2023-03-22T05:32:36;99464.31;;;18.93;42.66
13011;BME280;6786;57.632;11.962;2023-03-22T05:35:08;99407.38;;;18.59;42.41
13011;BME280;6786;57.632;11.962;2023-03-22T05:37:39;99461.47;;;18.94;42.66
13011;BME280;6786;57.632;11.962;2023-03-22T05:40:08;99455.31;;;18.94;42.65
13011;BME280;6786;57.632;11.962;2023-03-22T05:42:37;99453.63;;;18.93;42.65
13011;BME280;6786;57.632;11.962;2023-03-22T05:45:06;99458.97;;;18.93;42.71
13011;BME280;6786;57.632;11.962;2023-03-22T05:47:35;99459.97;;;18.92;42.63
13011;BME280;6786;57.632;11.962;2023-03-22T05:50:06;99444.56;;;18.86;42.71
13011;BME280;6786;57.632;11.962;2023-03-22T05:52:35;99456.63;;;18.90;42.61
13011;BME280;6786;57.632;11.962;2023-03-22T05:55:06;99448.25;;;18.93;42.61
13011;BME280;6786;57.632;11.962;2023-03-22T05:57:35;99414.44;;;18.68;42.67
13011;BME280;6786;57.632;11.962;2023-03-22T06:00:04;99454.47;;;18.93;42.77
13011;BME280;6786;57.632;11.962;2023-03-22T06:02:35;99452.63;;;18.94;42.69
13011;BME280;6786;57.632;11.962;2023-03-22T06:05:04;99415.28;;;18.76;42.72
13011;BME280;6786;57.632;11.962;2023-03-22T06:07:35;99439.25;;;18.94;42.67
13011;BME280;6786;57.632;11.962;2023-03-22T06:10:08;99433.88;;;18.94;42.68
13011;BME280;6786;57.632;11.962;2023-03-22T06:12:38;99441.94;;;18.94;42.71
13011;BME280;6786;57.632;11.962;2023-03-22T06:15:08;99428.53;;;18.94;42.69
13011;BME280;6786;57.632;11.962;2023-03-22T06:17:36;99439.25;;;18.94;42.77
13011;BME280;6786;57.632;11.962;2023-03-22T06:20:06;99425.19;;;18.92;42.62
13011;BME280;6786;57.632;11.962;2023-03-22T06:22:37;99421.50;;;18.93;42.74
13011;BME280;6786;57.632;11.962;2023-03-22T06:25:09;99416.13;;;18.93;42.70
13011;BME280;6786;57.632;11.962;2023-03-22T06:27:38;99416.97;;;18.93;42.71
13011;BME280;6786;57.632;11.962;2023-03-22T06:30:07;99421.50;;;18.93;42.50
13011;BME280;6786;57.632;11.962;2023-03-22T06:32:35;99418.16;;;18.91;42.95
13011;BME280;6786;57.632;11.962;2023-03-22T06:35:04;99420.84;;;18.91;43.12
13011;BME280;6786;57.632;11.962;2023-03-22T06:37:32;99414.47;;;18.92;43.22
13011;BME280;6786;57.632;11.962;2023-03-22T06:40:00;99414.47;;;18.92;43.23
13011;BME280;6786;57.632;11.962;2023-03-22T06:42:30;99419.81;;;18.92;43.34
13011;BME280;6786;57.632;11.962;2023-03-22T06:44:59;99404.59;;;18.92;43.35
13011;BME280;6786;57.632;11.962;2023-03-22T06:47:27;99416.97;;;18.93;43.46
13011;BME280;6786;57.632;11.962;2023-03-22T06:49:56;99415.31;;;18.92;43.46
13011;BME280;6786;57.632;11.962;2023-03-22T06:52:24;99417.84;;;18.94;43.42
13011;BME280;6786;57.632;11.962;2023-03-22T06:54:52;99415.47;;;18.91;43.55
13011;BME280;6786;57.632;11.962;2023-03-22T06:57:22;99402.09;;;18.91;43.48
13011;BME280;6786;57.632;11.962;2023-03-22T06:59:52;99408.94;;;18.93;43.53
13011;BME280;6786;57.632;11.962;2023-03-22T07:02:20;99396.41;;;18.94;43.59
13011;BME280;6786;57.632;11.962;2023-03-22T07:04:48;99404.44;;;18.94;43.49
13011;BME280;6786;57.632;11.962;2023-03-22T07:07:16;99403.44;;;18.95;43.64
13011;BME280;6786;57.632;11.962;2023-03-22T07:09:44;99398.06;;;18.95;43.57
13011;BME280;6786;57.632;11.962;2023-03-22T07:12:13;99399.75;;;18.96;43.54
13011;BME280;6786;57.632;11.962;2023-03-22T07:14:41;99401.44;;;18.97;43.72
13011;BME280;6786;57.632;11.962;2023-03-22T07:17:10;99401.44;;;18.97;43.55
13011;BME280;6786;57.632;11.962;2023-03-22T07:19:39;99396.09;;;18.97;43.58
13011;BME280;6786;57.632;11.962;2023-03-22T07:22:08;99401.44;;;18.97;43.56
13011;BME280;6786;57.632;11.962;2023-03-22T07:24:36;99385.38;;;18.97;43.64
13011;BME280;6786;57.632;11.962;2023-03-22T07:27:21;99380.81;;;18.97;43.72
13011;BME280;6786;57.632;11.962;2023-03-22T07:29:49;99374.66;;;18.97;43.60
13011;BME280;6786;57.632;11.962;2023-03-22T07:32:19;99367.59;;;18.96;43.63
13011;BME280;6786;57.632;11.962;2023-03-22T07:34:47;99364.94;;;18.96;43.77
13011;BME280;6786;57.632;11.962;2023-03-22T07:37:15;99363.94;;;18.97;43.77
13011;BME280;6786;57.632;11.962;2023-03-22T07:39:43;99372.63;;;18.99;43.72
13011;BME280;6786;57.632;11.962;2023-03-22T07:42:11;99364.59;;;18.99;43.62
13011;BME280;6786;57.632;11.962;2023-03-22T07:44:39;99367.28;;;18.99;43.76
13011;BME280;6786;57.632;11.962;2023-03-22T07:47:08;99359.06;;;19.00;43.67
13011;BME280;6786;57.632;11.962;2023-03-22T07:49:37;99362.78;;;18.99;43.73
13011;BME280;6786;57.632;11.962;2023-03-22T07:52:05;99370.13;;;18.97;43.73
13011;BME280;6786;57.632;11.962;2023-03-22T07:54:34;99361.59;;;18.94;43.71
13011;BME280;6786;57.632;11.962;2023-03-22T07:57:02;99370.63;;;19.01;43.84
13011;BME280;6786;57.632;11.962;2023-03-22T07:59:31;99361.91;;;18.99;43.84
13011;BME280;6786;57.632;11.962;2023-03-22T08:01:59;99371.47;;;19.01;43.91
13011;BME280;6786;57.632;11.962;2023-03-22T08:04:27;99362.59;;;19.01;43.86
13011;BME280;6786;57.632;11.962;2023-03-22T08:06:57;99358.25;;;19.00;43.88
13011;BME280;6786;57.632;11.962;2023-03-22T08:09:25;99358.25;;;19.00;44.01
13011;BME280;6786;57.632;11.962;2023-03-22T08:11:54;99351.22;;;18.99;44.03
13011;BME280;6786;57.632;11.962;2023-03-22T08:14:22;99351.22;;;18.99;44.05
13011;BME280;6786;57.632;11.962;2023-03-22T08:17:01;99358.59;;;18.97;43.92
13011;BME280;6786;57.632;11.962;2023-03-22T08:19:29;99362.94;;;18.98;44.02
13011;BME280;6786;57.632;11.962;2023-03-22T08:22:00;99356.56;;;18.99;44.03
13011;BME280;6786;57.632;11.962;2023-03-22T08:24:29;99358.25;;;19.00;44.09
13011;BME280;6786;57.632;11.962;2023-03-22T08:26:57;99357.41;;;18.99;44.20
13011;BME280;6786;57.632;11.962;2023-03-22T08:29:25;99358.25;;;19.00;44.20
13011;BME280;6786;57.632;11.962;2023-03-22T08:31:53;99262.91;;;18.43;44.05
13011;BME280;6786;57.632;11.962;2023-03-22T08:34:21;99355.59;;;19.00;44.18
13011;BME280;6786;57.632;11.962;2023-03-22T08:36:49;99343.00;;;19.00;44.07
13011;BME280;6786;57.632;11.962;2023-03-22T08:39:19;99347.56;;;19.00;44.15
13011;BME280;6786;57.632;11.962;2023-03-22T08:41:48;99347.88;;;18.97;44.16
13011;BME280;6786;57.632;11.962;2023-03-22T08:44:16;99340.84;;;18.96;44.28
13011;BME280;6786;57.632;11.962;2023-03-22T08:46:44;99351.53;;;18.96;44.13
13011;BME280;6786;57.632;11.962;2023-03-22T08:49:12;99342.53;;;18.97;44.13
13011;BME280;6786;57.632;11.962;2023-03-22T08:51:40;99331.16;;;18.95;44.13
13011;BME280;6786;57.632;11.962;2023-03-22T08:54:09;99327.28;;;18.97;44.05
13011;BME280;6786;57.632;11.962;2023-03-22T08:56:38;99332.47;;;18.99;44.06
13011;BME280;6786;57.632;11.962;2023-03-22T08:59:08;99324.44;;;18.99;44.03
13011;BME280;6786;57.632;11.962;2023-03-22T09:01:36;99322.78;;;18.98;44.15
13011;BME280;6786;57.632;11.962;2023-03-22T09:04:05;99324.44;;;18.99;44.07
13011;BME280;6786;57.632;11.962;2023-03-22T09:06:36;99319.09;;;18.99;44.06
13011;BME280;6786;57.632;11.962;2023-03-22T09:09:08;99315.75;;;18.97;44.05
13011;BME280;6786;57.632;11.962;2023-03-22T09:11:38;99312.91;;;18.98;44.27
13011;BME280;6786;57.632;11.962;2023-03-22T09:14:07;99310.41;;;18.97;44.08
13011;BME280;6786;57.632;11.962;2023-03-22T09:16:35;99306.72;;;18.98;44.17
13011;BME280;6786;57.632;11.962;2023-03-22T09:19:03;99301.34;;;18.98;44.04
13011;BME280;6786;57.632;11.962;2023-03-22T09:21:32;99303.03;;;18.99;44.21
13011;BME280;6786;57.632;11.962;2023-03-22T09:24:00;99300.69;;;18.96;44.22
13011;BME280;6786;57.632;11.962;2023-03-22T09:26:28;99298.69;;;18.98;44.19
13011;BME280;6786;57.632;11.962;2023-03-22T09:28:58;99289.00;;;18.97;44.11
13011;BME280;6786;57.632;11.962;2023-03-22T09:31:26;99284.63;;;18.96;44.17
13011;BME280;6786;57.632;11.962;2023-03-22T09:33:54;99290.66;;;18.98;44.23
13011;BME280;6786;57.632;11.962;2023-03-22T09:36:23;99281.59;;;18.99;44.24
13011;BME280;6786;57.632;11.962;2023-03-22T09:38:51;99286.13;;;18.98;44.11
13011;BME280;6786;57.632;11.962;2023-03-22T09:41:21;99283.47;;;18.98;44.07
13011;BME280;6786;57.632;11.962;2023-03-22T09:43:53;99288.13;;;18.96;44.17
13011;BME280;6786;57.632;11.962;2023-03-22T09:46:28;99284.78;;;18.94;44.15
13011;BME280;6786;57.632;11.962;2023-03-22T09:48:59;99276.94;;;18.93;44.14
13011;BME280;6786;57.632;11.962;2023-03-22T09:51:36;99280.63;;;18.92;44.10
13011;BME280;6786;57.632;11.962;2023-03-22T09:54:11;99279.28;;;18.88;44.20
13011;BME280;6786;57.632;11.962;2023-03-22T09:56:40;99272.25;;;18.87;44.12
13011;BME280;6786;57.632;11.962;2023-03-22T09:59:13;99272.59;;;18.84;44.04
13011;BME280;6786;57.632;11.962;2023-03-22T10:01:46;99275.94;;;18.86;44.41
13011;BME280;6786;57.632;11.962;2023-03-22T10:04:29;99262.72;;;18.84;44.35
13011;BME280;6786;57.632;11.962;2023-03-22T10:07:05;99269.91;;;18.84;44.09
13011;BME280;6786;57.632;11.962;2023-03-22T10:09:44;99270.91;;;18.83;44.25
13011;BME280;6786;57.632;11.962;2023-03-22T10:12:21;99263.91;;;18.82;44.17
13011;BME280;6786;57.632;11.962;2023-03-22T10:15:03;99247.84;;;18.82;44.18
13011;BME280;6786;57.632;11.962;2023-03-22T10:17:35;99255.19;;;18.80;44.24
13011;BME280;6786;57.632;11.962;2023-03-22T10:20:06;99256.03;;;18.80;44.15
13011;BME280;6786;57.632;11.962;2023-03-22T10:22:39;99265.06;;;18.79;44.13
13011;BME280;6786;57.632;11.962;2023-03-22T10:25:08;99264.25;;;18.79;44.06
13011;BME280;6786;57.632;11.962;2023-03-22T10:27:42;99249.16;;;18.78;44.09
13011;BME280;6786;57.632;11.962;2023-03-22T10:30:19;99246.50;;;18.78;44.32
13011;BME280;6786;57.632;11.962;2023-03-22T10:32:53;99244.84;;;18.77;44.18
13011;BME280;6786;57.632;11.962;2023-03-22T10:35:24;99241.31;;;18.76;44.05
13011;BME280;6786;57.632;11.962;2023-03-22T10:37:54;99244.84;;;18.77;44.17
13011;BME280;6786;57.632;11.962;2023-03-22T10:40:25;99239.47;;;18.77;44.06
13011;BME280;6786;57.632;11.962;2023-03-22T10:42:56;99232.47;;;18.76;44.05
13011;BME280;6786;57.632;11.962;2023-03-22T10:45:27;99227.13;;;18.76;44.29
13011;BME280;6786;57.632;11.962;2023-03-22T10:47:59;99237.81;;;18.76;44.12
13011;BME280;6786;57.632;11.962;2023-03-22T10:50:33;99233.44;;;18.75;44.02
13011;BME280;6786;57.632;11.962;2023-03-22T10:53:05;99219.94;;;18.68;44.07
13011;BME280;6786;57.632;11.962;2023-03-22T10:55:38;99229.09;;;18.74;44.25
13011;BME280;6786;57.632;11.962;2023-03-22T10:58:12;99222.91;;;18.73;44.26
13011;BME280;6786;57.632;11.962;2023-03-22T11:00:45;99226.44;;;18.74;44.15
13011;BME280;6786;57.632;11.962;2023-03-22T11:03:26;99223.75;;;18.74;44.09
13011;BME280;6786;57.632;11.962;2023-03-22T11:06:04;99210.38;;;18.74;44.32
13011;BME280;6786;57.632;11.962;2023-03-22T11:08:43;99215.06;;;18.72;44.47
13011;BME280;6786;57.632;11.962;2023-03-22T11:11:22;99215.91;;;18.72;44.25
13011;BME280;6786;57.632;11.962;2023-03-22T11:13:54;99215.06;;;18.72;44.20
13011;BME280;6786;57.632;11.962;2023-03-22T11:16:23;99210.53;;;18.72;44.25
13011;BME280;6786;57.632;11.962;2023-03-22T11:18:53;99212.38;;;18.72;44.15
13011;BME280;6786;57.632;11.962;2023-03-22T11:21:24;99209.69;;;18.72;44.16
13011;BME280;6786;57.632;11.962;2023-03-22T11:23:58;99193.66;;;18.72;44.18
13011;BME280;6786;57.632;11.962;2023-03-22T11:26:31;99205.19;;;18.72;44.19
13011;BME280;6786;57.632;11.962;2023-03-22T11:29:09;99198.19;;;18.71;44.13
13011;BME280;6786;57.632;11.962;2023-03-22T11:31:50;99197.34;;;18.71;44.41
13011;BME280;6786;57.632;11.962;2023-03-22T11:34:25;99201.03;;;18.70;44.12
13011;BME280;6786;57.632;11.962;2023-03-22T11:36:54;99194.81;;;18.69;44.11
13011;BME280;6786;57.632;11.962;2023-03-22T11:39:24;99199.84;;;18.72;44.40
13011;BME280;6786;57.632;11.962;2023-03-22T11:41:56;99187.94;;;18.75;44.42
13011;BME280;6786;57.632;11.962;2023-03-22T11:44:27;99187.63;;;18.78;44.45
13011;BME280;6786;57.632;11.962;2023-03-22T11:47:00;99175.91;;;18.79;44.48
13011;BME280;6786;57.632;11.962;2023-03-22T11:49:37;99180.25;;;18.80;44.80
13011;BME280;6786;57.632;11.962;2023-03-22T11:52:09;99161.88;;;18.69;44.61
13011;BME280;6786;57.632;11.962;2023-03-22T11:54:38;99181.75;;;18.82;44.54
13011;BME280;6786;57.632;11.962;2023-03-22T11:57:12;99177.06;;;18.84;44.70
13011;BME280;6786;57.632;11.962;2023-03-22T11:59:49;99181.56;;;18.84;44.72
13011;BME280;6786;57.632;11.962;2023-03-22T12:02:22;99172.56;;;18.85;44.54
13011;BME280;6786;57.632;11.962;2023-03-22T12:04:58;99168.88;;;18.86;44.65
13011;BME280;6786;57.632;11.962;2023-03-22T12:07:29;99163.50;;;18.86;44.46
13011;BME280;6786;57.632;11.962;2023-03-22T12:10:03;99162.84;;;18.84;44.65
13011;BME280;6786;57.632;11.962;2023-03-22T12:12:37;99152.81;;;18.86;44.62
13011;BME280;6786;57.632;11.962;2023-03-22T12:15:13;99155.47;;;18.86;44.74
13011;BME280;6786;57.632;11.962;2023-03-22T12:17:47;99158.00;;;18.87;44.66
13011;BME280;6786;57.632;11.962;2023-03-22T12:20:30;99150.81;;;18.88;44.79
13011;BME280;6786;57.632;11.962;2023-03-22T12:23:00;99144.59;;;18.87;44.67
13011;BME280;6786;57.632;11.962;2023-03-22T12:25:31;99154.13;;;18.90;44.65
13011;BME280;6786;57.632;11.962;2023-03-22T12:28:04;99152.47;;;18.89;44.76
13011;BME280;6786;57.632;11.962;2023-03-22T12:30:38;99134.75;;;18.88;44.87
13011;BME280;6786;57.632;11.962;2023-03-22T12:33:13;99136.41;;;18.89;44.74
13011;BME280;6786;57.632;11.962;2023-03-22T12:35:45;99147.97;;;18.89;44.76
13011;BME280;6786;57.632;11.962;2023-03-22T12:38:25;99145.13;;;18.91;44.81
13011;BME280;6786;57.632;11.962;2023-03-22T12:40:56;99139.75;;;18.91;44.82
13011;BME280;6786;57.632;11.962;2023-03-22T12:43:38;99128.03;;;18.92;44.94
13011;BME280;6786;57.632;11.962;2023-03-22T12:46:15;99136.06;;;18.92;44.72
13011;BME280;6786;57.632;11.962;2023-03-22T12:48:48;99126.19;;;18.92;44.83
13011;BME280;6786;57.632;11.962;2023-03-22T12:51:18;99118.97;;;18.93;44.79
13011;BME280;6786;57.632;11.962;2023-03-22T12:53:49;99118.00;;;18.94;44.70
13011;BME280;6786;57.632;11.962;2023-03-22T12:56:20;99099.25;;;18.94;44.73
13011;BME280;6786;57.632;11.962;2023-03-22T12:58:53;99093.72;;;18.95;44.72
13011;BME280;6786;57.632;11.962;2023-03-22T13:01:30;99094.53;;;18.96;44.87
13011;BME280;6786;57.632;11.962;2023-03-22T13:04:27;99096.22;;;18.97;45.34
13011;BME280;6786;57.632;11.962;2023-03-22T13:07:09;99091.06;;;18.95;45.19
13011;BME280;6786;57.632;11.962;2023-03-22T13:09:40;99037.44;;;18.73;44.80
13011;BME280;6786;57.632;11.962;2023-03-22T13:12:28;99067.94;;;18.94;45.16
13011;BME280;6786;57.632;11.962;2023-03-22T13:15:16;99072.50;;;18.94;44.71
13011;BME280;6786;57.632;11.962;2023-03-22T13:18:13;99060.09;;;18.93;44.85
13011;BME280;6786;57.632;11.962;2023-03-22T13:21:08;99044.69;;;18.95;45.11
13011;BME280;6786;57.632;11.962;2023-03-22T13:23:52;99050.06;;;18.95;45.19
13011;BME280;6786;57.632;11.962;2023-03-22T13:26:24;99036.84;;;18.93;44.78
13011;BME280;6786;57.632;11.962;2023-03-22T13:28:59;99037.69;;;18.94;44.81
13011;BME280;6786;57.632;11.962;2023-03-22T13:31:35;99032.34;;;18.94;44.89
13011;BME280;6786;57.632;11.962;2023-03-22T13:34:12;99046.72;;;18.93;44.93